Etusivu
METAR-TAF:

METAR-TAF

Lentoasemat :

Torino, Italia

Leveyspiiri: 45-13N, Pituuspiiri: 007-39E, korkeus merenpinnasta: 301 m

Tämänhetkinen sää

Tämä raportti tehtiin 18 minuuttia sitten, kello 11.20 UTC
Tuuli 5 kn idästä
Lämpötila 14°C
Kosteus 38%
Ilmanpaine 1018 hPa
Näkyvyys 10 km tai enemmän
ei pilviä alle 1500 m:ssä eikä cumulonimbus-pilviä

METAR: LIMF 101120Z 10005KT CAVOK 14/M00 Q1018

Aika: 12:38 (11:38 UTC)

Sääennuste

Tämä raportti tehtiin 38 minuuttia sitten, kello 11.00 UTC
Ennuste voimassa 10. päivästä klo 12 UTC - 11. päivään klo 12 UTC
Tuuli 7 kn lännestä/luoteesta
Näkyvyys 10 km tai enemmän
ei pilviä alle 1500 m:ssä eikä cumulonimbus-pilviä

TAF: LIMF 101100Z 1012/1112 30007KT CAVOK

Säähavainnot ja -ennusteet yli 4000 lentoasemalta (METAR- ja TAF-raportit).

Käytössä olevat sääasemat on merkitty karttaan keltaisilla ja punaisilla pisteillä.

Aseta hiiri pisteen päälle nähdäksesi sääaseman nimen.

Klikkaa sitten nähdäksesi säähavainnot ja -ennusteet.

Kartan vaihtaminen: klikkaa mustalla rastilla varustettuja vihreitä pisteitä, niin voit zoomata sisään; viivalla varustettua vihreää pistettä, niin voit zoomata ulos tai vihreitä nuolia, niin pääset viereisille kartoille.


METAR-TAF: